createdAt,value
2018-01-01T00:01:38.419Z,12.20
2018-01-01T00:04:07.092Z,12.20
2018-01-01T00:06:35.785Z,12.20
2018-01-01T00:09:03.788Z,12.20
2018-01-01T00:11:33.068Z,12.20
2018-01-01T00:14:01.740Z,12.20
2018-01-01T00:16:30.427Z,12.20
2018-01-01T00:18:59.093Z,12.20
2018-01-01T00:21:28.042Z,12.20
2018-01-01T00:23:57.489Z,12.30
2018-01-01T00:26:26.153Z,12.20
2018-01-01T00:28:54.821Z,12.30
2018-01-01T00:31:24.284Z,12.30
2018-01-01T00:33:52.950Z,12.30
2018-01-01T00:36:21.645Z,12.40
2018-01-01T00:38:50.314Z,12.40
2018-01-01T00:41:18.991Z,12.40
2018-01-01T00:43:47.665Z,12.40
2018-01-01T00:46:17.085Z,12.40
2018-01-01T00:48:45.769Z,12.40
2018-01-01T00:51:14.425Z,12.40
2018-01-01T00:53:43.125Z,12.40
2018-01-01T00:56:12.565Z,12.30
2018-01-01T00:58:41.228Z,12.30
2018-01-01T01:01:10.359Z,12.30
2018-01-01T01:03:39.022Z,12.30
2018-01-01T01:06:07.705Z,12.30
2018-01-01T01:08:36.381Z,12.40
2018-01-01T01:11:05.818Z,12.40
2018-01-01T01:13:34.510Z,12.40
2018-01-01T01:16:03.159Z,12.40
2018-01-01T01:18:32.591Z,12.40
2018-01-01T01:21:01.268Z,12.40
2018-01-01T01:23:29.921Z,12.40
2018-01-01T01:25:58.588Z,12.50
2018-01-01T01:28:27.956Z,12.50
2018-01-01T01:30:56.630Z,12.50
2018-01-01T01:33:25.317Z,12.50
2018-01-01T01:35:53.981Z,12.50
2018-01-01T01:38:23.421Z,12.50
2018-01-01T01:40:52.076Z,12.50
2018-01-01T01:43:20.762Z,12.50
2018-01-01T01:45:50.202Z,12.60
2018-01-01T01:48:18.886Z,12.50
2018-01-01T01:50:47.555Z,12.60
2018-01-01T01:53:16.240Z,12.50
2018-01-01T01:55:44.902Z,12.50
2018-01-01T01:58:14.354Z,12.50
2018-01-01T02:00:43.041Z,12.50
2018-01-01T02:03:11.706Z,12.60
2018-01-01T02:05:40.377Z,12.60
2018-01-01T02:08:09.804Z,12.60
2018-01-01T02:10:38.489Z,12.60
2018-01-01T02:13:07.157Z,12.60
2018-01-01T02:15:36.260Z,12.60
2018-01-01T02:18:05.752Z,12.60
2018-01-01T02:20:34.877Z,12.60
2018-01-01T02:23:03.540Z,12.50
2018-01-01T02:25:32.974Z,12.50
2018-01-01T02:28:01.662Z,12.50
2018-01-01T02:30:30.322Z,12.50
2018-01-01T02:32:59.011Z,12.50
2018-01-01T02:35:28.196Z,12.50
2018-01-01T02:37:57.646Z,12.40
2018-01-01T02:40:26.310Z,12.40
2018-01-01T02:42:55.002Z,12.40
2018-01-01T02:45:23.660Z,12.40
2018-01-01T02:47:53.093Z,12.40
2018-01-01T02:50:21.781Z,12.40
2018-01-01T02:52:51.379Z,12.40
2018-01-01T02:55:20.070Z,12.40
2018-01-01T02:57:48.747Z,12.40
2018-01-01T03:00:21.119Z,12.40
2018-01-01T03:02:49.785Z,12.40
2018-01-01T03:05:18.478Z,12.40
2018-01-01T03:07:47.949Z,12.40
2018-01-01T03:10:17.085Z,12.40
2018-01-01T03:12:46.544Z,12.40
2018-01-01T03:15:15.219Z,12.40
2018-01-01T03:17:43.913Z,12.40
2018-01-01T03:20:12.578Z,12.40
2018-01-01T03:22:41.246Z,12.40
2018-01-01T03:25:10.693Z,12.40
2018-01-01T03:27:39.366Z,12.40
2018-01-01T03:30:08.031Z,12.30
2018-01-01T03:32:36.723Z,12.30
2018-01-01T03:35:06.150Z,12.30
2018-01-01T03:37:34.840Z,12.30
2018-01-01T03:40:03.506Z,12.30
2018-01-01T03:42:32.157Z,12.30
2018-01-01T03:45:00.838Z,12.20
2018-01-01T03:47:29.501Z,12.20
2018-01-01T03:49:58.198Z,12.30
2018-01-01T03:52:26.861Z,12.30
2018-01-01T03:54:55.527Z,12.30
2018-01-01T03:57:24.207Z,12.30
2018-01-01T03:59:52.868Z,12.40
2018-01-01T04:02:22.321Z,12.30
2018-01-01T04:04:50.988Z,12.30
2018-01-01T04:07:19.659Z,12.30
2018-01-01T04:09:49.093Z,12.30
2018-01-01T04:12:17.789Z,12.30
2018-01-01T04:14:46.476Z,12.30
2018-01-01T04:17:15.139Z,12.30
2018-01-01T04:19:43.902Z,12.30
2018-01-01T04:22:13.346Z,12.20
2018-01-01T04:24:41.993Z,12.20
2018-01-01T04:27:11.445Z,12.20
2018-01-01T04:29:40.108Z,12.20
2018-01-01T04:32:08.768Z,12.20
2018-01-01T04:34:38.214Z,12.10
2018-01-01T04:37:06.877Z,12.10
2018-01-01T04:39:36.336Z,12.10
2018-01-01T04:42:04.999Z,12.10
2018-01-01T04:44:33.661Z,12.00
2018-01-01T04:47:02.345Z,12.00
2018-01-01T04:49:31.005Z,12.00
2018-01-01T04:51:59.691Z,12.00
2018-01-01T04:54:28.357Z,12.00
2018-01-01T04:56:57.022Z,12.00
2018-01-01T04:59:25.701Z,11.90
2018-01-01T05:01:54.037Z,11.90
2018-01-01T05:04:23.498Z,11.90
2018-01-01T05:06:52.172Z,11.90
2018-01-01T05:09:20.836Z,11.90
2018-01-01T05:11:49.512Z,11.90
2018-01-01T05:14:18.935Z,11.80
2018-01-01T05:16:47.630Z,11.80
2018-01-01T05:19:16.285Z,11.80
2018-01-01T05:21:45.703Z,11.80
2018-01-01T05:24:14.381Z,11.80
2018-01-01T05:26:43.822Z,11.80
2018-01-01T05:29:12.513Z,11.80
2018-01-01T05:31:41.251Z,11.80
2018-01-01T05:34:10.673Z,11.80
2018-01-01T05:36:40.130Z,11.80
2018-01-01T05:39:08.788Z,11.80
2018-01-01T05:41:37.476Z,11.80
2018-01-01T05:44:06.134Z,11.80
2018-01-01T05:46:34.797Z,11.80
2018-01-01T05:49:03.464Z,11.70
2018-01-01T05:51:32.131Z,11.70
2018-01-01T05:54:00.824Z,11.70
2018-01-01T05:56:29.481Z,11.70
2018-01-01T05:58:58.133Z,11.70
2018-01-01T06:01:27.582Z,11.70
2018-01-01T06:03:56.241Z,11.70
2018-01-01T06:06:25.694Z,11.70
2018-01-01T06:08:54.365Z,11.70
2018-01-01T06:11:23.024Z,11.70
2018-01-01T06:13:52.466Z,11.60
2018-01-01T06:16:21.981Z,11.60
2018-01-01T06:18:50.686Z,11.60
2018-01-01T06:21:19.336Z,11.60
2018-01-01T06:23:47.993Z,11.60
2018-01-01T06:26:16.672Z,11.60
2018-01-01T06:28:46.093Z,11.50
2018-01-01T06:31:14.781Z,11.50
2018-01-01T06:33:43.444Z,11.60
2018-01-01T06:36:12.873Z,11.60
2018-01-01T06:38:41.557Z,11.60
2018-01-01T06:41:10.225Z,11.50
2018-01-01T06:43:39.348Z,11.50
2018-01-01T06:46:08.009Z,11.50
2018-01-01T06:48:37.433Z,11.50
2018-01-01T06:51:06.105Z,11.50
2018-01-01T06:53:35.197Z,11.50
2018-01-01T06:56:04.653Z,11.50
2018-01-01T06:58:33.305Z,11.40
2018-01-01T07:01:01.962Z,11.50
2018-01-01T07:03:30.637Z,11.40
2018-01-01T07:05:59.300Z,11.40
2018-01-01T07:08:27.801Z,11.40
2018-01-01T07:10:56.461Z,11.40
2018-01-01T07:13:25.117Z,11.40
2018-01-01T07:15:53.459Z,11.30
2018-01-01T07:18:22.129Z,11.30
2018-01-01T07:20:50.822Z,11.30
2018-01-01T07:23:19.492Z,11.30
2018-01-01T07:25:48.150Z,11.30
2018-01-01T07:28:16.837Z,11.20
2018-01-01T07:30:45.501Z,11.20
2018-01-01T07:33:14.957Z,11.20
2018-01-01T07:35:43.618Z,11.20
2018-01-01T07:38:12.277Z,11.20
2018-01-01T07:40:41.726Z,11.10
2018-01-01T07:43:10.385Z,11.10
2018-01-01T07:45:39.080Z,11.10
2018-01-01T07:48:07.749Z,11.10
2018-01-01T07:50:36.521Z,11.10
2018-01-01T07:53:05.974Z,11.00
2018-01-01T07:55:34.633Z,11.00
2018-01-01T07:58:04.093Z,11.00
2018-01-01T08:00:32.750Z,11.00
2018-01-01T08:03:02.346Z,11.00
2018-01-01T08:05:31.020Z,10.90
2018-01-01T08:07:59.686Z,10.90
2018-01-01T08:10:29.136Z,10.90
2018-01-01T08:12:57.805Z,10.90
2018-01-01T08:15:26.298Z,10.90
2018-01-01T08:17:54.985Z,10.90
2018-01-01T08:20:23.645Z,10.90
2018-01-01T08:22:53.096Z,10.80
2018-01-01T08:25:21.768Z,10.80
2018-01-01T08:27:50.439Z,10.80
2018-01-01T08:30:18.790Z,10.80
2018-01-01T08:32:48.222Z,10.90
2018-01-01T08:35:16.909Z,10.80
2018-01-01T08:37:46.262Z,10.90
2018-01-01T08:40:14.929Z,10.90
2018-01-01T08:42:43.289Z,10.80
2018-01-01T08:45:11.948Z,10.80
2018-01-01T08:47:41.405Z,10.80
2018-01-01T08:50:10.077Z,10.80
2018-01-01T08:52:38.750Z,10.80
2018-01-01T08:55:07.451Z,10.80
2018-01-01T08:57:36.142Z,10.90
2018-01-01T09:00:04.821Z,10.90
2018-01-01T09:02:33.506Z,10.90
2018-01-01T09:05:02.177Z,10.80
2018-01-01T09:07:30.853Z,10.60
2018-01-01T09:09:59.514Z,10.30
2018-01-01T09:12:28.206Z,10.10
2018-01-01T09:14:57.638Z,9.90
2018-01-01T09:17:26.293Z,9.80
2018-01-01T09:19:55.729Z,9.60
2018-01-01T10:44:22.645Z,9.60
2018-01-01T10:46:52.736Z,10.40
2018-01-01T10:49:25.061Z,10.40
2018-01-01T10:51:54.548Z,10.50
2018-01-01T10:54:23.210Z,10.60
2018-01-01T10:56:51.877Z,10.60
2018-01-01T10:59:20.757Z,10.50
2018-01-01T11:01:49.434Z,10.50
2018-01-01T11:04:18.121Z,10.50
2018-01-01T11:06:46.792Z,10.50
2018-01-01T11:09:15.461Z,10.50
2018-01-01T11:11:44.142Z,10.50
2018-01-01T11:14:12.626Z,10.50
2018-01-01T11:16:41.323Z,10.50
2018-01-01T11:19:09.981Z,10.50
2018-01-01T11:21:39.410Z,10.60
2018-01-01T11:24:08.085Z,10.60
2018-01-01T11:26:36.745Z,10.60
2018-01-01T11:29:05.438Z,10.70
2018-01-01T11:31:34.106Z,10.60
2018-01-01T11:34:02.432Z,10.60
2018-01-01T11:36:31.105Z,10.50
2018-01-01T11:39:00.552Z,10.60
2018-01-01T11:41:29.245Z,10.50
2018-01-01T11:43:58.737Z,10.60
2018-01-01T11:46:27.587Z,10.60
2018-01-01T11:48:57.038Z,10.50
2018-01-01T11:51:25.698Z,10.50
2018-01-01T11:53:54.390Z,10.50
2018-01-01T11:56:23.058Z,10.50
2018-01-01T11:58:52.486Z,10.40
2018-01-01T12:01:21.239Z,10.40
2018-01-01T12:03:50.673Z,10.30
2018-01-01T12:06:19.362Z,10.30
2018-01-01T12:08:48.020Z,10.30
2018-01-01T12:11:17.451Z,10.20
2018-01-01T12:13:46.121Z,10.20
2018-01-01T12:16:15.549Z,10.10
2018-01-01T12:18:44.246Z,10.10
2018-01-01T12:21:12.577Z,10.10
2018-01-01T12:23:42.007Z,10.10
2018-01-01T12:26:10.701Z,10.00
2018-01-01T12:28:39.361Z,10.00
2018-01-01T12:31:08.809Z,10.00
2018-01-01T12:33:37.466Z,10.00
2018-01-01T12:36:06.135Z,10.10
2018-01-01T12:38:35.584Z,10.10
2018-01-01T12:41:04.326Z,10.10
2018-01-01T12:43:33.781Z,10.10
2018-01-01T12:46:02.442Z,10.00
2018-01-01T12:48:31.122Z,10.10
2018-01-01T12:51:00.793Z,10.10
2018-01-01T12:53:30.352Z,10.10
2018-01-01T12:55:59.750Z,10.10
2018-01-01T12:58:28.414Z,10.10
2018-01-01T13:00:57.835Z,10.10
2018-01-01T13:03:26.193Z,10.10
2018-01-01T13:05:54.855Z,10.10
2018-01-01T13:08:23.554Z,10.10
2018-01-01T13:10:52.228Z,10.10
2018-01-01T13:13:20.894Z,10.20
2018-01-01T13:15:49.594Z,10.20
2018-01-01T13:18:18.268Z,10.20
2018-01-01T13:20:46.955Z,10.20
2018-01-01T13:23:15.625Z,10.20
2018-01-01T13:25:44.315Z,10.20
2018-01-01T13:28:12.972Z,10.10
2018-01-01T13:30:42.397Z,10.10
2018-01-01T13:33:11.084Z,10.00
2018-01-01T13:35:39.763Z,10.10
2018-01-01T13:38:09.223Z,10.10
2018-01-01T13:40:37.895Z,10.10
2018-01-01T13:43:55.214Z,10.10
2018-01-01T13:46:46.230Z,10.10
2018-01-01T13:49:16.562Z,10.10
2018-01-01T13:51:46.635Z,10.10
2018-01-01T13:57:03.354Z,10.10
2018-01-01T13:59:33.382Z,10.10
2018-01-01T14:02:02.089Z,10.10
2018-01-01T14:04:31.113Z,10.10
2018-01-01T14:06:59.779Z,10.10
2018-01-01T14:09:28.475Z,10.10
2018-01-01T14:11:57.157Z,10.00
2018-01-01T14:14:25.854Z,10.00
2018-01-01T14:16:54.526Z,9.90
2018-01-01T14:19:23.195Z,10.10
2018-01-01T14:21:51.881Z,10.00
2018-01-01T14:24:24.648Z,9.90
2018-01-01T15:10:39.582Z,9.80
2018-01-01T15:13:08.250Z,9.10
2018-01-01T15:16:27.622Z,9.10
2018-01-01T15:18:56.291Z,9.10
2018-01-01T15:21:24.613Z,9.10
2018-01-01T15:23:53.299Z,9.10
2018-01-01T15:26:21.969Z,9.10
2018-01-01T15:28:50.656Z,9.00
2018-01-01T15:31:20.458Z,9.00
2018-01-01T15:33:49.133Z,9.00
2018-01-01T15:36:17.804Z,8.90
2018-01-01T15:38:46.485Z,8.90
2018-01-01T15:41:17.625Z,8.80
2018-01-01T15:43:47.774Z,8.80
2018-01-01T15:46:20.211Z,8.80
2018-01-01T15:48:49.671Z,8.80
2018-01-01T15:51:20.100Z,8.80
2018-01-01T15:54:08.867Z,8.80
2018-01-01T15:56:39.374Z,8.80
2018-01-01T15:59:12.767Z,8.70
2018-01-01T16:01:42.406Z,8.60
2018-01-01T16:04:11.804Z,8.60
2018-01-01T16:06:40.457Z,8.60
2018-01-01T16:09:09.126Z,8.50
2018-01-01T16:11:38.565Z,8.50
2018-01-01T16:14:07.218Z,8.50
2018-01-01T16:16:36.671Z,8.40
2018-01-01T16:19:05.398Z,8.40
2018-01-01T16:21:38.135Z,8.40
2018-01-01T16:24:06.823Z,8.40
2018-01-01T16:33:11.650Z,8.20
2018-01-01T16:35:44.542Z,8.10
2018-01-01T16:38:13.653Z,8.10
2018-01-01T16:40:43.490Z,8.10
2018-01-01T16:43:12.270Z,8.10
2018-01-01T16:45:40.947Z,8.00
2018-01-01T16:48:09.605Z,8.00
2018-01-01T16:50:39.057Z,8.00
2018-01-01T16:53:07.716Z,8.00
2018-01-01T16:55:36.367Z,8.00
2018-01-01T16:58:05.038Z,7.90
2018-01-01T17:00:33.712Z,7.90
2018-01-01T17:03:02.425Z,7.90
2018-01-01T17:05:31.130Z,7.90
2018-01-01T17:08:00.580Z,7.80
2018-01-01T17:10:29.284Z,7.70
2018-01-01T17:12:57.760Z,7.70
2018-01-01T17:15:27.214Z,7.60
2018-01-01T17:17:56.643Z,7.60
2018-01-01T17:20:25.296Z,7.60
2018-01-01T17:22:58.799Z,7.50
2018-01-01T17:25:28.383Z,7.50
2018-01-01T17:28:01.538Z,7.50
2018-01-01T17:30:30.003Z,7.40
2018-01-01T17:32:58.721Z,7.40
2018-01-01T17:35:27.222Z,7.30
2018-01-01T17:37:55.718Z,7.30
2018-01-01T17:40:24.998Z,7.20
2018-01-01T17:42:53.478Z,7.20
2018-01-01T17:45:21.985Z,7.20
2018-01-01T17:47:50.458Z,7.10
2018-01-01T17:50:18.934Z,7.10
2018-01-01T17:52:47.423Z,7.10
2018-01-01T17:55:15.894Z,7.10
2018-01-01T17:57:44.394Z,7.10
2018-01-01T18:00:12.869Z,7.10
2018-01-01T18:02:41.358Z,7.10
2018-01-01T18:05:09.515Z,7.10
2018-01-01T18:07:38.200Z,7.10
2018-01-01T18:10:06.900Z,7.10
2018-01-01T18:12:35.253Z,7.10
2018-01-01T18:15:03.607Z,7.10
2018-01-01T18:17:32.294Z,7.00
2018-01-01T18:20:02.638Z,7.00
2018-01-01T18:22:58.664Z,7.00
2018-01-01T18:25:27.954Z,7.00
2018-01-01T18:27:56.670Z,6.90
2018-01-01T18:30:25.345Z,6.90
2018-01-01T18:32:54.492Z,6.90
2018-01-01T18:35:23.179Z,6.90
2018-01-01T18:37:52.671Z,6.80
2018-01-01T18:40:21.516Z,6.70
2018-01-01T18:42:51.012Z,6.70
2018-01-01T18:45:19.698Z,6.70
2018-01-01T18:47:49.253Z,6.60
2018-01-01T18:50:17.944Z,6.60
2018-01-01T18:52:46.617Z,6.60
2018-01-01T18:55:15.285Z,6.50
2018-01-01T18:57:43.983Z,6.50
2018-01-01T20:22:11.122Z,6.40
2018-01-01T20:24:39.803Z,7.60
2018-01-01T20:27:08.464Z,7.20
2018-01-01T20:29:37.165Z,7.00
2018-01-01T20:32:05.862Z,6.90
2018-01-01T20:34:34.545Z,6.90
2018-01-01T20:37:03.223Z,6.80
2018-01-01T20:39:38.677Z,6.80
2018-01-01T21:08:12.910Z,6.80
2018-01-01T21:10:41.562Z,6.80
2018-01-01T21:13:10.216Z,6.80
2018-01-01T21:15:38.888Z,6.80
2018-01-01T21:18:08.319Z,6.80
2018-01-01T21:20:37.193Z,6.80
2018-01-01T21:24:33.331Z,6.80
2018-01-01T21:27:02.004Z,6.80
2018-01-01T21:29:31.450Z,6.80
2018-01-01T21:32:00.848Z,6.80
2018-01-01T21:37:13.544Z,6.80
2018-01-01T21:39:42.227Z,6.80
2018-01-01T21:42:11.659Z,6.80
2018-01-01T21:44:40.749Z,6.80
2018-01-01T21:47:09.414Z,6.80
2018-01-01T21:49:38.869Z,6.80
2018-01-01T21:52:07.193Z,6.80
2018-01-01T21:54:35.843Z,6.80
2018-01-01T21:57:04.521Z,6.80
2018-01-01T21:59:33.174Z,6.80
2018-01-01T22:02:02.626Z,6.80
2018-01-01T22:04:31.306Z,6.80
2018-01-01T22:06:59.972Z,6.90
2018-01-01T22:09:28.642Z,6.80
2018-01-01T22:11:57.314Z,6.90
2018-01-01T22:19:17.341Z,6.80
2018-01-01T22:21:46.785Z,8.50
2018-01-01T22:24:15.125Z,8.50
2018-01-01T22:26:44.569Z,9.50
2018-01-01T22:29:13.222Z,9.50
2018-01-01T22:31:41.906Z,9.20
2018-01-01T22:34:11.340Z,8.50
2018-01-01T22:36:39.991Z,8.50
2018-01-01T22:39:09.448Z,8.00
2018-01-01T22:41:38.109Z,8.00
2018-01-01T22:44:06.782Z,7.80
2018-01-01T22:46:35.457Z,7.70
2018-01-01T22:49:04.885Z,7.60
2018-01-01T22:51:33.572Z,7.60
2018-01-01T22:54:02.242Z,7.50
2018-01-01T22:56:31.861Z,7.30
2018-01-01T22:59:00.529Z,7.30
2018-01-01T23:01:30.546Z,7.20
2018-01-01T23:04:00.718Z,7.20
2018-01-01T23:06:30.155Z,7.10
2018-01-01T23:08:59.805Z,7.10
2018-01-01T23:11:28.514Z,7.10
2018-01-01T23:13:56.860Z,7.00
2018-01-01T23:16:25.555Z,7.00
2018-01-01T23:18:54.209Z,7.00
2018-01-01T23:21:23.647Z,7.00
2018-01-01T23:23:52.326Z,6.90
2018-01-01T23:26:21.030Z,7.00
2018-01-01T23:28:49.724Z,7.00
2018-01-01T23:31:18.392Z,7.00
2018-01-01T23:33:47.078Z,6.90
2018-01-01T23:36:15.757Z,7.00
2018-01-01T23:38:44.425Z,7.00
2018-01-01T23:41:13.885Z,7.00
2018-01-01T23:43:42.546Z,7.00
2018-01-01T23:46:11.215Z,7.00
2018-01-01T23:48:40.653Z,7.00
2018-01-01T23:51:09.311Z,7.00
2018-01-01T23:53:37.997Z,7.10
2018-01-01T23:56:08.322Z,7.00
2018-01-01T23:58:37.749Z,7.00
